createdAt,value
2019-01-12T00:00:15.063Z,7.20
2019-01-12T00:02:43.478Z,7.20
2019-01-12T00:05:11.814Z,7.20
2019-01-12T00:07:40.172Z,7.20
2019-01-12T00:10:09.144Z,7.20
2019-01-12T00:12:37.441Z,7.20
2019-01-12T00:15:07.338Z,7.20
2019-01-12T00:17:35.611Z,7.20
2019-01-12T00:20:05.952Z,7.20
2019-01-12T00:22:34.354Z,7.20
2019-01-12T00:25:02.739Z,7.20
2019-01-12T00:27:31.162Z,7.10
2019-01-12T00:29:59.458Z,7.20
2019-01-12T00:32:27.767Z,7.10
2019-01-12T00:34:56.131Z,7.10
2019-01-12T00:37:24.434Z,7.10
2019-01-12T00:39:52.762Z,7.10
2019-01-12T00:42:21.070Z,7.10
2019-01-12T00:44:49.419Z,7.10
2019-01-12T00:47:17.843Z,7.10
2019-01-12T00:49:46.121Z,7.10
2019-01-12T00:52:14.467Z,7.10
2019-01-12T00:54:42.848Z,7.10
2019-01-12T00:57:11.133Z,7.10
2019-01-12T00:59:39.506Z,7.10
2019-01-12T01:02:07.903Z,7.10
2019-01-12T01:04:36.398Z,7.10
2019-01-12T01:07:04.895Z,7.10
2019-01-12T01:09:33.191Z,7.10
2019-01-12T01:12:01.511Z,7.10
2019-01-12T01:14:29.823Z,7.10
2019-01-12T01:16:58.099Z,7.10
2019-01-12T01:19:26.402Z,7.10
2019-01-12T01:21:54.756Z,7.10
2019-01-12T01:24:23.122Z,7.10
2019-01-12T01:26:51.474Z,7.10
2019-01-12T01:29:19.873Z,7.00
2019-01-12T01:31:48.231Z,7.10
2019-01-12T01:34:16.645Z,7.10
2019-01-12T01:36:45.005Z,7.10
2019-01-12T01:39:13.380Z,7.10
2019-01-12T01:41:41.745Z,7.10
2019-01-12T01:44:10.095Z,7.00
2019-01-12T01:46:39.151Z,7.00
2019-01-12T01:49:07.496Z,7.00
2019-01-12T01:51:35.999Z,7.00
2019-01-12T01:54:04.338Z,6.90
2019-01-12T01:56:32.644Z,6.90
2019-01-12T01:59:00.996Z,6.90
2019-01-12T02:01:29.379Z,6.90
2019-01-12T02:03:57.654Z,6.80
2019-01-12T02:06:25.954Z,6.80
2019-01-12T02:08:54.242Z,6.90
2019-01-12T02:11:22.562Z,6.80
2019-01-12T02:13:50.912Z,6.80
2019-01-12T02:16:19.228Z,6.80
2019-01-12T02:18:47.600Z,6.80
2019-01-12T02:21:16.129Z,6.80
2019-01-12T02:23:44.424Z,6.70
2019-01-12T02:26:12.774Z,6.70
2019-01-12T02:28:41.067Z,6.80
2019-01-12T02:31:09.349Z,6.70
2019-01-12T02:33:37.762Z,6.70
2019-01-12T02:36:06.113Z,6.70
2019-01-12T02:38:34.416Z,6.70
2019-01-12T02:41:02.749Z,6.70
2019-01-12T02:43:31.115Z,6.70
2019-01-12T02:45:59.493Z,6.70
2019-01-12T02:48:28.019Z,6.70
2019-01-12T02:50:56.371Z,6.70
2019-01-12T02:53:24.670Z,6.60
2019-01-12T02:55:53.086Z,6.70
2019-01-12T02:58:21.479Z,6.60
2019-01-12T03:00:49.831Z,6.60
2019-01-12T03:03:18.187Z,6.60
2019-01-12T03:05:46.516Z,6.60
2019-01-12T03:08:14.841Z,6.50
2019-01-12T03:10:43.259Z,6.50
2019-01-12T03:13:11.539Z,6.60
2019-01-12T03:15:40.075Z,6.50
2019-01-12T03:18:08.443Z,6.50
2019-01-12T03:20:36.817Z,6.50
2019-01-12T03:23:05.186Z,6.50
2019-01-12T03:25:33.553Z,6.50
2019-01-12T03:28:01.935Z,6.50
2019-01-12T03:30:30.309Z,6.50
2019-01-12T03:32:58.743Z,6.50
2019-01-12T03:35:27.137Z,6.50
2019-01-12T03:37:55.483Z,6.50
2019-01-12T03:40:23.852Z,6.50
2019-01-12T03:42:52.139Z,6.50
2019-01-12T03:45:20.520Z,6.50
2019-01-12T03:47:48.931Z,6.50
2019-01-12T03:50:17.267Z,6.50
2019-01-12T03:52:45.594Z,6.50
2019-01-12T03:55:13.940Z,6.40
2019-01-12T03:57:42.282Z,6.50
2019-01-12T04:00:16.839Z,6.40
2019-01-12T04:02:45.199Z,6.50
2019-01-12T04:05:13.467Z,6.50
2019-01-12T04:07:41.767Z,6.50
2019-01-12T04:10:11.689Z,6.50
2019-01-12T04:12:40.056Z,6.40
2019-01-12T04:15:10.955Z,6.40
2019-01-12T04:17:39.340Z,6.50
2019-01-12T04:20:15.720Z,6.40
2019-01-12T04:22:44.007Z,6.40
2019-01-12T04:25:12.288Z,6.50
2019-01-12T04:27:40.594Z,6.40
2019-01-12T04:30:16.572Z,6.40
2019-01-12T04:32:44.871Z,6.40
2019-01-12T04:35:13.226Z,6.40
2019-01-12T04:37:41.595Z,6.40
2019-01-12T04:40:15.144Z,6.40
2019-01-12T04:42:43.438Z,6.40
2019-01-12T04:45:11.780Z,6.40
2019-01-12T04:47:40.095Z,6.40
2019-01-12T04:50:11.308Z,6.40
2019-01-12T04:52:39.630Z,6.40
2019-01-12T04:55:08.191Z,6.40
2019-01-12T04:57:36.478Z,6.40
2019-01-12T05:00:08.234Z,6.40
2019-01-12T05:02:36.583Z,6.40
2019-01-12T05:05:05.520Z,6.40
2019-01-12T05:07:36.653Z,6.40
2019-01-12T05:10:08.164Z,6.40
2019-01-12T05:12:36.694Z,6.40
2019-01-12T05:15:07.808Z,6.40
2019-01-12T05:17:36.093Z,6.40
2019-01-12T05:20:07.727Z,6.40
2019-01-12T05:22:36.006Z,6.40
2019-01-12T05:25:05.817Z,6.40
2019-01-12T05:27:34.103Z,6.40
2019-01-12T05:30:02.866Z,6.40
2019-01-12T05:32:31.576Z,6.50
2019-01-12T05:35:00.101Z,6.50
2019-01-12T05:37:28.642Z,6.50
2019-01-12T05:39:57.017Z,6.50
2019-01-12T05:42:25.364Z,6.50
2019-01-12T05:44:57.758Z,6.40
2019-01-12T05:47:26.140Z,6.40
2019-01-12T05:49:54.435Z,6.40
2019-01-12T05:52:23.204Z,6.40
2019-01-12T05:54:52.152Z,6.40
2019-01-12T05:57:20.689Z,6.40
2019-01-12T05:59:49.086Z,6.40
2019-01-12T06:02:17.361Z,6.40
2019-01-12T06:04:45.846Z,6.50
2019-01-12T06:07:15.781Z,6.50
2019-01-12T06:09:44.155Z,6.60
2019-01-12T06:12:12.934Z,6.60
2019-01-12T06:14:41.217Z,6.60
2019-01-12T06:17:09.582Z,6.60
2019-01-12T06:19:37.934Z,6.60
2019-01-12T06:22:06.704Z,6.60
2019-01-12T06:24:35.189Z,6.60
2019-01-12T06:27:03.574Z,6.60
2019-01-12T06:29:31.963Z,6.60
2019-01-12T06:32:00.364Z,6.60
2019-01-12T06:34:28.709Z,6.60
2019-01-12T06:36:57.021Z,6.60
2019-01-12T06:39:25.369Z,6.50
2019-01-12T06:41:53.655Z,6.50
2019-01-12T06:44:21.940Z,6.50
2019-01-12T06:46:50.234Z,6.50
2019-01-12T06:49:18.534Z,6.50
2019-01-12T06:51:46.837Z,6.50
2019-01-12T06:54:15.142Z,6.50
2019-01-12T06:56:43.442Z,6.50
2019-01-12T06:59:15.954Z,6.50
2019-01-12T07:01:45.238Z,6.40
2019-01-12T07:04:13.608Z,6.50
2019-01-12T07:06:41.958Z,6.50
2019-01-12T07:09:10.367Z,6.60
2019-01-12T07:11:38.659Z,6.60
2019-01-12T07:14:06.978Z,6.60
2019-01-12T07:16:35.359Z,6.70
2019-01-12T07:19:03.809Z,6.70
2019-01-12T07:21:32.241Z,6.70
2019-01-12T07:24:00.541Z,6.80
2019-01-12T07:26:28.901Z,6.80
2019-01-12T07:28:57.191Z,6.90
2019-01-12T07:31:25.523Z,6.90
2019-01-12T07:33:53.869Z,7.00
2019-01-12T07:36:22.244Z,7.00
2019-01-12T07:38:50.612Z,7.00
2019-01-12T07:41:18.934Z,7.00
2019-01-12T07:43:47.301Z,7.00
2019-01-12T07:46:15.664Z,7.00
2019-01-12T07:48:44.216Z,7.00
2019-01-12T07:51:12.577Z,7.00
2019-01-12T07:53:41.063Z,7.00
2019-01-12T07:56:09.349Z,7.00
2019-01-12T07:58:37.654Z,7.00
2019-01-12T08:01:06.030Z,7.10
2019-01-12T08:03:34.427Z,7.10
2019-01-12T08:06:02.748Z,7.20
2019-01-12T08:08:31.097Z,7.20
2019-01-12T08:10:59.491Z,7.20
2019-01-12T08:13:27.820Z,7.30
2019-01-12T08:15:56.288Z,7.30
2019-01-12T08:18:24.637Z,7.30
2019-01-12T08:20:52.940Z,7.40
2019-01-12T08:23:21.224Z,7.30
2019-01-12T08:25:49.670Z,7.40
2019-01-12T08:28:18.168Z,7.40
2019-01-12T08:30:49.192Z,7.50
2019-01-12T08:33:17.558Z,7.50
2019-01-12T08:35:45.918Z,7.50
2019-01-12T08:38:14.240Z,7.50
2019-01-12T08:40:42.597Z,7.50
2019-01-12T08:43:11.061Z,7.50
2019-01-12T08:45:39.376Z,7.60
2019-01-12T08:48:07.869Z,7.50
2019-01-12T08:50:36.358Z,7.60
2019-01-12T08:53:04.712Z,7.60
2019-01-12T08:55:33.184Z,7.60
2019-01-12T08:58:01.717Z,7.60
2019-01-12T09:00:30.079Z,7.60
2019-01-12T09:03:00.410Z,7.60
2019-01-12T09:05:28.447Z,7.60
2019-01-12T09:07:56.828Z,7.50
2019-01-12T09:10:25.115Z,7.50
2019-01-12T09:12:53.613Z,7.50
2019-01-12T09:15:23.609Z,7.60
2019-01-12T09:17:52.217Z,7.60
2019-01-12T09:20:20.580Z,7.70
2019-01-12T09:22:48.931Z,7.70
2019-01-12T09:25:17.227Z,7.70
2019-01-12T09:27:45.515Z,7.70
2019-01-12T09:30:16.610Z,7.70
2019-01-12T09:32:45.043Z,7.80
2019-01-12T09:35:13.733Z,7.80
2019-01-12T09:37:42.167Z,7.80
2019-01-12T09:40:13.389Z,7.80
2019-01-12T09:42:41.661Z,7.80
2019-01-12T09:45:11.977Z,7.90
2019-01-12T09:47:40.434Z,7.90
2019-01-12T09:50:12.080Z,7.90
2019-01-12T09:52:40.455Z,7.90
2019-01-12T09:55:08.748Z,8.00
2019-01-12T09:57:37.024Z,8.00
2019-01-12T10:00:14.344Z,7.90
2019-01-12T10:02:42.696Z,8.00
2019-01-12T10:05:11.090Z,8.00
2019-01-12T10:07:39.529Z,7.90
2019-01-12T10:10:11.159Z,8.00
2019-01-12T10:12:39.604Z,8.00
2019-01-12T10:15:09.333Z,8.10
2019-01-12T10:17:37.623Z,8.10
2019-01-12T10:20:14.325Z,8.20
2019-01-12T10:22:42.699Z,8.20
2019-01-12T10:25:11.051Z,8.30
2019-01-12T10:27:39.477Z,8.20
2019-01-12T10:30:11.116Z,8.30
2019-01-12T10:32:39.488Z,8.30
2019-01-12T10:35:08.411Z,8.30
2019-01-12T10:37:36.708Z,8.30
2019-01-12T10:40:13.743Z,8.30
2019-01-12T10:42:42.153Z,8.30
2019-01-12T10:45:13.137Z,8.30
2019-01-12T10:47:42.672Z,8.30
2019-01-12T10:50:20.264Z,8.30
2019-01-12T10:52:48.560Z,8.30
2019-01-12T10:55:16.843Z,8.40
2019-01-12T10:57:45.222Z,8.40
2019-01-12T11:00:22.336Z,8.50
2019-01-12T11:02:50.635Z,8.50
2019-01-12T11:05:18.981Z,8.50
2019-01-12T11:07:47.292Z,8.50
2019-01-12T11:10:15.687Z,8.50
2019-01-12T11:12:44.091Z,8.60
2019-01-12T11:15:15.487Z,8.60
2019-01-12T11:17:43.874Z,8.50
2019-01-12T11:20:12.241Z,8.60
2019-01-12T11:22:40.587Z,8.60
2019-01-12T11:25:11.411Z,8.60
2019-01-12T11:27:39.723Z,8.70
2019-01-12T11:30:11.471Z,8.70
2019-01-12T11:32:39.780Z,8.70
2019-01-12T11:35:09.409Z,8.80
2019-01-12T11:37:38.181Z,8.80
2019-01-12T11:40:17.714Z,8.80
2019-01-12T11:42:46.181Z,8.80
2019-01-12T11:45:14.454Z,8.90
2019-01-12T11:47:42.804Z,8.90
2019-01-12T11:50:15.510Z,8.90
2019-01-12T11:52:44.398Z,8.30
2019-01-12T11:55:14.138Z,8.90
2019-01-12T11:57:42.442Z,8.90
2019-01-12T12:00:19.523Z,9.00
2019-01-12T12:02:47.984Z,9.10
2019-01-12T12:05:17.274Z,9.00
2019-01-12T12:07:45.860Z,9.00
2019-01-12T12:10:15.778Z,9.00
2019-01-12T12:12:44.144Z,9.00
2019-01-12T12:15:17.778Z,9.10
2019-01-12T12:17:46.172Z,9.10
2019-01-12T12:20:19.988Z,9.10
2019-01-12T12:22:48.441Z,9.20
2019-01-12T12:25:16.824Z,9.20
2019-01-12T12:27:45.200Z,9.20
2019-01-12T12:30:16.971Z,9.20
2019-01-12T12:32:45.303Z,9.20
2019-01-12T12:35:13.674Z,9.20
2019-01-12T12:37:42.028Z,9.20
2019-01-12T12:40:13.892Z,9.20
2019-01-12T12:42:42.258Z,9.30
2019-01-12T12:45:16.644Z,9.30
2019-01-12T12:47:45.082Z,9.30
2019-01-12T12:50:15.006Z,9.30
2019-01-12T12:52:43.332Z,9.40
2019-01-12T12:55:13.220Z,9.40
2019-01-12T12:57:41.539Z,9.40
2019-01-12T13:00:13.353Z,9.40
2019-01-12T13:02:41.671Z,9.50
2019-01-12T13:05:10.602Z,9.50
2019-01-12T13:07:38.887Z,9.50
2019-01-12T13:10:13.426Z,9.50
2019-01-12T13:12:41.847Z,9.60
2019-01-12T13:15:10.767Z,9.60
2019-01-12T13:17:39.194Z,9.60
2019-01-12T13:20:10.803Z,9.60
2019-01-12T13:22:39.178Z,9.60
2019-01-12T13:25:07.874Z,9.60
2019-01-12T13:27:39.780Z,9.60
2019-01-12T13:30:09.499Z,9.60
2019-01-12T13:32:37.797Z,9.60
2019-01-12T13:35:07.214Z,9.70
2019-01-12T13:37:35.718Z,9.70
2019-01-12T13:40:07.187Z,9.70
2019-01-12T13:42:36.929Z,9.70
2019-01-12T13:45:08.656Z,9.70
2019-01-12T13:47:37.023Z,9.70
2019-01-12T13:50:11.229Z,9.70
2019-01-12T13:52:40.616Z,9.70
2019-01-12T13:55:11.587Z,9.60
2019-01-12T13:57:47.088Z,9.60
2019-01-12T14:00:13.790Z,9.60
2019-01-12T14:02:42.260Z,9.60
2019-01-12T14:05:10.611Z,9.60
2019-01-12T14:07:39.024Z,9.60
2019-01-12T14:10:13.330Z,9.60
2019-01-12T14:12:41.686Z,9.60
2019-01-12T14:15:12.672Z,9.50
2019-01-12T14:17:40.996Z,9.50
2019-01-12T14:20:12.517Z,9.50
2019-01-12T14:22:40.812Z,9.50
2019-01-12T14:25:09.094Z,9.50
2019-01-12T14:27:37.455Z,9.50
2019-01-12T14:30:15.314Z,9.50
2019-01-12T14:32:39.232Z,9.40
2019-01-12T14:35:09.962Z,9.40
2019-01-12T14:37:38.272Z,9.40
2019-01-12T14:40:09.818Z,9.40
2019-01-12T14:42:39.062Z,9.40
2019-01-12T14:45:10.942Z,9.40
2019-01-12T14:47:39.281Z,9.40
2019-01-12T14:50:10.987Z,9.40
2019-01-12T14:52:39.282Z,9.40
2019-01-12T14:55:10.279Z,9.40
2019-01-12T14:57:38.644Z,9.30
2019-01-12T15:00:11.084Z,9.30
2019-01-12T15:02:39.646Z,9.30
2019-01-12T15:05:11.321Z,9.30
2019-01-12T15:07:39.899Z,9.30
2019-01-12T15:10:11.485Z,9.30
2019-01-12T15:12:40.877Z,9.30
2019-01-12T15:15:11.795Z,9.30
2019-01-12T15:17:40.209Z,9.20
2019-01-12T15:20:20.081Z,9.20
2019-01-12T15:22:48.643Z,9.20
2019-01-12T15:25:17.151Z,9.20
2019-01-12T15:27:45.501Z,9.20
2019-01-12T15:30:25.571Z,9.20
2019-01-12T15:32:54.201Z,9.30
2019-01-12T15:35:24.646Z,9.20
2019-01-12T15:37:52.966Z,9.20
2019-01-12T15:40:22.633Z,9.10
2019-01-12T15:42:50.937Z,9.20
2019-01-12T15:45:23.860Z,9.20
2019-01-12T15:47:52.210Z,9.20
2019-01-12T15:50:23.280Z,9.20
2019-01-12T15:52:51.828Z,9.20
2019-01-12T15:55:20.176Z,9.30
2019-01-12T15:57:48.580Z,9.20
2019-01-12T16:00:22.849Z,9.20
2019-01-12T16:02:51.226Z,9.20
2019-01-12T16:05:19.504Z,9.20
2019-01-12T16:07:47.806Z,9.10
2019-01-12T16:10:16.091Z,9.10
2019-01-12T16:12:44.366Z,9.10
2019-01-12T16:15:20.764Z,9.00
2019-01-12T16:17:49.138Z,9.00
2019-01-12T16:20:26.482Z,9.00
2019-01-12T16:22:54.770Z,9.00
2019-01-12T16:25:23.074Z,9.10
2019-01-12T16:27:51.356Z,9.00
2019-01-12T16:30:20.704Z,9.00
2019-01-12T16:32:49.227Z,9.00
2019-01-12T16:35:18.490Z,9.00
2019-01-12T16:37:47.166Z,9.10
2019-01-12T16:40:18.107Z,9.10
2019-01-12T16:42:46.643Z,9.10
2019-01-12T16:45:15.024Z,9.10
2019-01-12T16:47:43.298Z,9.00
2019-01-12T16:50:11.602Z,9.00
2019-01-12T16:52:40.038Z,9.00
2019-01-12T16:55:10.883Z,9.00
2019-01-12T16:57:39.241Z,8.90
2019-01-12T17:00:15.979Z,8.80
2019-01-12T17:02:44.253Z,8.80
2019-01-12T17:05:12.545Z,8.90
2019-01-12T17:07:42.281Z,8.90
2019-01-12T17:10:16.364Z,8.90
2019-01-12T17:12:44.695Z,8.80
2019-01-12T17:15:14.914Z,8.80
2019-01-12T17:17:43.224Z,8.80
2019-01-12T17:20:19.519Z,8.90
2019-01-12T17:22:49.067Z,8.90
2019-01-12T17:25:17.493Z,8.90
2019-01-12T17:27:45.876Z,8.90
2019-01-12T17:30:23.087Z,8.90
2019-01-12T17:32:51.447Z,8.90
2019-01-12T17:35:19.730Z,8.90
2019-01-12T17:37:48.305Z,8.90
2019-01-12T17:40:17.399Z,8.90
2019-01-12T17:42:45.685Z,8.90
2019-01-12T17:45:19.307Z,8.90
2019-01-12T17:47:47.679Z,8.90
2019-01-12T17:50:18.293Z,8.90
2019-01-12T17:52:46.679Z,8.90
2019-01-12T17:55:19.721Z,8.90
2019-01-12T17:57:48.075Z,8.90
2019-01-12T18:00:20.143Z,8.90
2019-01-12T18:02:48.520Z,8.90
2019-01-12T18:05:16.815Z,8.80
2019-01-12T18:07:45.160Z,8.80
2019-01-12T18:10:14.758Z,8.70
2019-01-12T18:12:43.041Z,8.70
2019-01-12T18:15:15.355Z,8.70
2019-01-12T18:17:43.706Z,8.70
2019-01-12T18:20:14.921Z,8.70
2019-01-12T18:22:43.354Z,8.70
2019-01-12T18:25:12.634Z,8.70
2019-01-12T18:27:41.040Z,8.60
2019-01-12T18:30:24.274Z,8.70
2019-01-12T18:32:52.562Z,8.70
2019-01-12T18:35:20.836Z,8.70
2019-01-12T18:37:49.217Z,8.80
2019-01-12T18:40:21.503Z,8.80
2019-01-12T18:42:49.944Z,8.80
2019-01-12T18:45:19.895Z,8.80
2019-01-12T18:47:48.264Z,8.80
2019-01-12T18:50:21.953Z,8.90
2019-01-12T18:52:50.371Z,8.90
2019-01-12T18:55:18.730Z,9.00
2019-01-12T18:57:47.021Z,8.90
2019-01-12T19:00:20.466Z,8.90
2019-01-12T19:02:48.815Z,9.00
2019-01-12T19:05:17.124Z,9.00
2019-01-12T19:07:45.477Z,9.00
2019-01-12T19:10:14.384Z,9.00
2019-01-12T19:12:42.759Z,9.10
2019-01-12T19:15:17.242Z,9.10
2019-01-12T19:17:45.607Z,9.10
2019-01-12T19:20:13.949Z,9.10
2019-01-12T19:22:42.244Z,9.00
2019-01-12T19:25:12.434Z,9.10
2019-01-12T19:27:40.804Z,9.20
2019-01-12T19:30:17.118Z,9.20
2019-01-12T19:32:45.541Z,9.10
2019-01-12T19:35:13.819Z,9.10
2019-01-12T19:37:42.103Z,9.10
2019-01-12T19:40:13.301Z,9.20
2019-01-12T19:42:41.830Z,9.20
2019-01-12T19:45:12.381Z,9.20
2019-01-12T19:47:40.863Z,9.20
2019-01-12T19:50:17.872Z,9.20
2019-01-12T19:52:46.469Z,9.20
2019-01-12T19:55:15.103Z,9.20
2019-01-12T19:57:43.966Z,9.20
2019-01-12T20:00:14.964Z,9.20
2019-01-12T20:02:43.310Z,9.20
2019-01-12T20:05:11.606Z,9.20
2019-01-12T20:07:42.946Z,9.20
2019-01-12T20:10:13.886Z,9.20
2019-01-12T20:12:42.185Z,9.20
2019-01-12T20:15:13.730Z,9.20
2019-01-12T20:17:42.002Z,9.20
2019-01-12T20:20:12.546Z,9.20
2019-01-12T20:22:40.928Z,9.20
2019-01-12T20:25:26.848Z,9.20
2019-01-12T20:27:55.198Z,9.20
2019-01-12T20:30:29.368Z,9.20
2019-01-12T20:33:24.986Z,9.20
2019-01-12T20:36:16.413Z,9.20
2019-01-12T20:39:04.694Z,9.20
2019-01-12T20:41:48.753Z,9.20
2019-01-12T20:44:20.395Z,9.30
2019-01-12T20:47:00.208Z,9.30
2019-01-12T20:49:34.826Z,9.20
2019-01-12T20:52:26.229Z,9.20
2019-01-12T20:55:19.166Z,9.20
2019-01-12T20:57:53.546Z,9.20
2019-01-12T21:00:53.499Z,9.20
2019-01-12T21:03:27.620Z,9.20
2019-01-12T21:06:05.083Z,9.20
2019-01-12T21:08:36.786Z,9.20
2019-01-12T21:11:23.255Z,9.20
2019-01-12T21:14:03.831Z,9.20
2019-01-12T21:16:33.434Z,9.20
2019-01-12T21:19:01.797Z,9.20
2019-01-12T21:21:30.313Z,9.20
2019-01-12T21:23:58.688Z,9.20
2019-01-12T21:26:27.027Z,9.20
2019-01-12T21:28:55.454Z,9.20
2019-01-12T21:31:23.793Z,9.20
2019-01-12T21:33:52.280Z,9.20
2019-01-12T21:36:20.657Z,9.20
2019-01-12T21:38:49.107Z,9.20
2019-01-12T21:41:17.624Z,9.10
2019-01-12T21:43:45.915Z,9.20
2019-01-12T21:46:14.263Z,9.20
2019-01-12T21:48:42.703Z,9.20
2019-01-12T21:51:11.153Z,9.20
2019-01-12T21:53:39.762Z,9.10
2019-01-12T21:56:08.163Z,9.10
2019-01-12T21:58:36.622Z,9.10
2019-01-12T22:01:05.169Z,9.10
2019-01-12T22:03:33.457Z,9.10
2019-01-12T22:06:01.940Z,9.10
2019-01-12T22:08:30.354Z,9.20
2019-01-12T22:10:58.821Z,9.20
2019-01-12T22:13:27.276Z,9.20
2019-01-12T22:15:56.110Z,9.10
2019-01-12T22:18:24.649Z,9.20
2019-01-12T22:20:53.151Z,9.20
2019-01-12T22:23:21.587Z,9.20
2019-01-12T22:25:50.015Z,9.20
2019-01-12T22:28:18.358Z,9.10
2019-01-12T22:30:46.732Z,9.20
2019-01-12T22:33:15.102Z,9.20
2019-01-12T22:35:43.526Z,9.10
2019-01-12T22:38:11.890Z,9.10
2019-01-12T22:40:40.214Z,9.10
2019-01-12T22:43:08.504Z,9.10
2019-01-12T22:45:36.948Z,9.10
2019-01-12T22:48:05.348Z,9.10
2019-01-12T22:50:33.660Z,9.10
2019-01-12T22:53:01.936Z,9.20
2019-01-12T22:55:30.247Z,9.20
2019-01-12T22:57:58.596Z,9.20
2019-01-12T23:00:46.750Z,9.10
2019-01-12T23:03:15.220Z,9.10
2019-01-12T23:05:43.508Z,9.10
2019-01-12T23:08:11.783Z,9.00
2019-01-12T23:10:40.150Z,8.90
2019-01-12T23:13:08.427Z,8.80
2019-01-12T23:15:36.851Z,8.80
2019-01-12T23:18:05.276Z,8.70
2019-01-12T23:20:33.645Z,8.60
2019-01-12T23:23:02.022Z,8.60
2019-01-12T23:25:30.393Z,8.60
2019-01-12T23:27:58.745Z,8.50
2019-01-12T23:30:27.149Z,8.50
2019-01-12T23:32:55.619Z,8.50
2019-01-12T23:35:23.915Z,8.50
2019-01-12T23:37:52.193Z,8.40
2019-01-12T23:40:20.568Z,8.40
2019-01-12T23:42:48.914Z,8.50
2019-01-12T23:45:17.215Z,8.50
2019-01-12T23:47:45.567Z,8.50
2019-01-12T23:50:14.213Z,8.40
2019-01-12T23:52:42.569Z,8.40
2019-01-12T23:55:10.950Z,8.40
2019-01-12T23:57:39.305Z,8.30
